createdAt,value
2024-04-18T00:01:51.468Z,99690.34
2024-04-18T00:06:54.492Z,99685.22
2024-04-18T00:11:57.786Z,99686.09
2024-04-18T00:17:23.284Z,99687.84
2024-04-18T00:22:26.282Z,99689.56
2024-04-18T00:27:38.782Z,99685.25
2024-04-18T00:32:44.363Z,99696.41
2024-04-18T00:38:16.749Z,99691.31
2024-04-18T00:43:19.656Z,99695.59
2024-04-18T00:48:31.135Z,99697.28
2024-04-18T00:53:35.051Z,99705.03
2024-04-18T00:58:57.051Z,99705.88
2024-04-18T01:04:02.706Z,99711.03
2024-04-18T01:09:18.111Z,99710.19
2024-04-18T01:14:39.660Z,99729.91
2024-04-18T01:19:46.224Z,99721.31
2024-04-18T01:24:49.199Z,99725.56
2024-04-18T01:29:54.762Z,99724.72
2024-04-18T01:35:15.736Z,99735.88
2024-04-18T01:40:24.684Z,99734.19
2024-04-18T01:45:59.523Z,99740.16
2024-04-18T01:51:04.087Z,99741.00
2024-04-18T01:56:10.556Z,99753.00
2024-04-18T02:01:30.902Z,99768.44
2024-04-18T02:06:33.947Z,99773.56
2024-04-18T02:11:56.831Z,99769.22
2024-04-18T02:17:21.297Z,99764.09
2024-04-18T02:22:39.538Z,99764.06
2024-04-18T02:28:01.157Z,99764.91
2024-04-18T02:33:07.044Z,99765.72
2024-04-18T02:38:20.676Z,99778.59
2024-04-18T02:43:23.586Z,99776.06
2024-04-18T02:48:29.325Z,99783.78
2024-04-18T02:53:49.581Z,99790.69
2024-04-18T02:58:52.525Z,99778.72
2024-04-18T03:03:58.110Z,99786.41
2024-04-18T03:09:10.074Z,99786.41
2024-04-18T03:14:28.872Z,99793.25
2024-04-18T03:19:46.782Z,99794.94
2024-04-18T03:25:10.061Z,99800.94
2024-04-18T03:30:32.924Z,99800.94
2024-04-18T03:35:47.788Z,99806.91
2024-04-18T03:40:59.288Z,99809.50
2024-04-18T03:46:03.549Z,99819.78
2024-04-18T03:51:09.341Z,99822.34
2024-04-18T03:56:30.976Z,99816.34
2024-04-18T04:01:36.336Z,99823.16
2024-04-18T04:06:41.891Z,99837.97
2024-04-18T04:11:44.778Z,99845.72
2024-04-18T04:16:47.739Z,99855.09
2024-04-18T04:21:56.717Z,99857.66
2024-04-18T04:26:59.627Z,99863.72
2024-04-18T04:32:02.624Z,99873.88
2024-04-18T04:37:08.169Z,99882.44
2024-04-18T04:42:11.138Z,99891.91
2024-04-18T04:47:14.199Z,99895.34
2024-04-18T04:52:26.505Z,99903.06
2024-04-18T04:57:29.566Z,99921.16
2024-04-18T05:02:52.595Z,99919.44
2024-04-18T05:07:58.142Z,99919.47
2024-04-18T05:13:16.819Z,99922.09
2024-04-18T05:18:19.813Z,99937.66
2024-04-18T05:23:25.351Z,99941.97
2024-04-18T05:28:42.201Z,99938.50
2024-04-18T05:33:45.238Z,99948.00
2024-04-18T05:38:50.774Z,99949.75
2024-04-18T05:43:54.199Z,99971.28
2024-04-18T05:48:57.240Z,99969.56
2024-04-18T05:54:02.836Z,99973.03
2024-04-18T05:59:05.750Z,99976.44
2024-04-18T06:04:08.770Z,99975.56
2024-04-18T06:09:14.311Z,99975.53
2024-04-18T06:14:17.275Z,99982.34
2024-04-18T06:19:20.164Z,99992.59
2024-04-18T06:24:26.349Z,99993.34
2024-04-18T06:29:30.579Z,100008.72
2024-04-18T06:34:33.600Z,100002.69
2024-04-18T06:39:39.495Z,100011.25
2024-04-18T06:44:42.449Z,100020.69
2024-04-18T06:49:45.386Z,100010.31
2024-04-18T06:54:50.969Z,100031.81
2024-04-18T07:00:15.053Z,100037.00
2024-04-18T07:05:18.273Z,100033.50
2024-04-18T07:10:26.902Z,100041.91
2024-04-18T07:15:29.917Z,100043.78
2024-04-18T07:20:59.624Z,100052.63
2024-04-18T07:26:14.692Z,100048.34
2024-04-18T07:31:18.755Z,100060.47
2024-04-18T07:36:41.686Z,100070.94
2024-04-18T07:41:47.171Z,100078.19
2024-04-18T07:46:50.889Z,100078.88
2024-04-18T07:51:53.894Z,100080.69
2024-04-18T07:57:02.810Z,100094.22
2024-04-18T08:02:07.809Z,100106.53
2024-04-18T08:07:15.035Z,100105.00
2024-04-18T08:12:27.044Z,100112.66
2024-04-18T08:17:32.954Z,100107.22
2024-04-18T08:22:36.082Z,100107.44
2024-04-18T08:27:41.656Z,100101.19
2024-04-18T08:32:44.716Z,100099.44
2024-04-18T08:37:47.646Z,100106.22
2024-04-18T08:42:53.837Z,100109.59
2024-04-18T08:47:59.833Z,100105.69
2024-04-18T08:53:04.546Z,100097.88
2024-04-18T08:58:13.222Z,100102.56
2024-04-18T09:03:16.530Z,100093.19
2024-04-18T09:08:19.604Z,100086.22
2024-04-18T09:13:26.259Z,100092.25
2024-04-18T09:18:33.968Z,100099.38
2024-04-18T09:23:36.995Z,100097.50
2024-04-18T09:28:42.470Z,100100.53
2024-04-18T09:33:46.912Z,100097.56
2024-04-18T09:38:51.406Z,100100.81
2024-04-18T09:44:08.507Z,100099.31
2024-04-18T09:49:13.586Z,100101.91
2024-04-18T09:54:17.109Z,100089.16
2024-04-18T09:59:25.115Z,100104.31
2024-04-18T10:04:28.538Z,100106.13
2024-04-18T10:09:32.442Z,100112.28
2024-04-18T10:14:40.315Z,100112.09
2024-04-18T10:19:49.093Z,100112.94
2024-04-18T10:24:53.833Z,100113.56
2024-04-18T10:30:01.404Z,100123.13
2024-04-18T10:35:04.483Z,100110.34
2024-04-18T10:40:08.897Z,100106.03
2024-04-18T10:45:15.004Z,100105.41
2024-04-18T10:50:19.139Z,100119.44
2024-04-18T10:55:22.049Z,100117.63
2024-04-18T11:00:28.403Z,100107.44
2024-04-18T11:05:31.587Z,100124.31
2024-04-18T11:10:36.708Z,100123.78
2024-04-18T11:15:42.301Z,100141.28
2024-04-18T11:20:46.234Z,100135.09
2024-04-18T11:25:49.884Z,100141.19
2024-04-18T11:30:55.428Z,100149.84
2024-04-18T11:35:59.207Z,100148.22
2024-04-18T11:41:02.131Z,100141.31
2024-04-18T11:46:07.957Z,100148.34
2024-04-18T11:51:10.872Z,100153.53
2024-04-18T11:56:14.099Z,100157.78
2024-04-18T12:01:19.679Z,100149.78
2024-04-18T12:06:22.638Z,100157.31
2024-04-18T12:11:26.914Z,100155.53
2024-04-18T12:16:49.304Z,100143.03
2024-04-18T12:21:52.269Z,100144.63
2024-04-18T12:26:55.164Z,100151.44
2024-04-18T12:32:01.237Z,100149.81
2024-04-18T12:37:05.404Z,100155.66
2024-04-18T12:42:11.283Z,100155.06
2024-04-18T12:47:16.878Z,100151.50
2024-04-18T12:52:22.537Z,100146.44
2024-04-18T12:57:27.004Z,100144.97
2024-04-18T13:02:41.825Z,100143.78
2024-04-18T13:07:44.820Z,100158.38
2024-04-18T13:12:56.855Z,100145.19
2024-04-18T13:18:11.459Z,100147.03
2024-04-18T13:23:32.965Z,100140.63
2024-04-18T13:28:35.956Z,100141.28
2024-04-18T13:33:57.482Z,100154.13
2024-04-18T13:39:01.387Z,100139.69
2024-04-18T13:44:10.466Z,100132.47
2024-04-18T13:49:19.922Z,100141.50
2024-04-18T13:54:29.201Z,100150.78
2024-04-18T13:59:32.165Z,100140.22
2024-04-18T14:04:37.696Z,100130.75
2024-04-18T14:09:56.142Z,100142.38
2024-04-18T14:15:29.648Z,100123.13
2024-04-18T14:20:56.652Z,100116.91
2024-04-18T14:26:00.192Z,100125.59
2024-04-18T14:31:03.802Z,100128.97
2024-04-18T14:36:24.485Z,100143.47
2024-04-18T14:41:27.460Z,100144.66
2024-04-18T14:46:30.541Z,100139.63
2024-04-18T14:51:56.218Z,100141.25
2024-04-18T14:57:01.994Z,100136.69
2024-04-18T15:02:24.169Z,100127.88
2024-04-18T15:07:39.509Z,100130.25
2024-04-18T15:12:53.169Z,100127.81
2024-04-18T15:17:59.543Z,100131.28
2024-04-18T15:23:05.102Z,100125.97
2024-04-18T15:28:08.828Z,100122.91
2024-04-18T15:33:11.768Z,100124.34
2024-04-18T15:38:20.706Z,100123.44
2024-04-18T15:43:42.087Z,100127.22
2024-04-18T15:49:05.143Z,100122.84
2024-04-18T15:54:10.854Z,100144.66
2024-04-18T15:59:13.785Z,100145.28
2024-04-18T16:04:27.241Z,100138.78
2024-04-18T16:09:39.066Z,100139.94
2024-04-18T16:14:57.342Z,100152.59
2024-04-18T16:20:00.382Z,100144.97
2024-04-18T16:25:16.505Z,100149.56
2024-04-18T16:30:20.765Z,100158.38
2024-04-18T16:35:23.844Z,100149.16
2024-04-18T16:40:47.876Z,100146.78
2024-04-18T16:46:05.288Z,100139.69
2024-04-18T16:51:08.626Z,100150.91
2024-04-18T16:56:32.613Z,100155.31
2024-04-18T17:01:35.622Z,100150.94
2024-04-18T17:06:45.697Z,100152.50
2024-04-18T17:11:54.048Z,100153.41
2024-04-18T17:17:16.057Z,100151.81
2024-04-18T17:22:31.266Z,100149.75
2024-04-18T17:27:36.859Z,100151.91
2024-04-18T17:32:41.015Z,100162.72
2024-04-18T17:38:00.247Z,100157.78
2024-04-18T17:43:25.734Z,100161.06
2024-04-18T17:48:32.927Z,100161.50
2024-04-18T17:53:36.065Z,100165.56
2024-04-18T17:58:41.627Z,100170.28
2024-04-18T18:03:44.684Z,100168.91
2024-04-18T18:08:48.714Z,100171.72
2024-04-18T18:14:03.666Z,100174.63
2024-04-18T18:19:25.587Z,100180.72
2024-04-18T18:24:37.343Z,100179.06
2024-04-18T18:29:43.802Z,100184.34
2024-04-18T18:34:48.760Z,100182.88
2024-04-18T18:39:51.798Z,100190.69
2024-04-18T18:44:57.387Z,100189.91
2024-04-18T18:50:00.407Z,100192.63
2024-04-18T18:55:03.424Z,100192.69
2024-04-18T19:00:10.299Z,100191.84
2024-04-18T19:05:13.524Z,100195.56
2024-04-18T19:10:17.239Z,100195.75
2024-04-18T19:15:22.982Z,100190.53
2024-04-18T19:20:26.592Z,100201.13
2024-04-18T19:25:29.980Z,100197.03
2024-04-18T19:30:35.613Z,100171.25
2024-04-18T19:35:38.534Z,100187.69
2024-04-18T19:40:41.586Z,100190.34
2024-04-18T19:45:57.064Z,100191.31
2024-04-18T19:51:00.232Z,100181.88
2024-04-18T19:56:03.157Z,100191.38
2024-04-18T20:01:08.747Z,100184.50
2024-04-18T20:06:11.763Z,100189.72
2024-04-18T20:11:28.107Z,100189.78
2024-04-18T20:16:33.660Z,100195.81
2024-04-18T20:21:48.606Z,100194.97
2024-04-18T20:26:51.590Z,100194.13
2024-04-18T20:32:18.054Z,100199.31
2024-04-18T20:37:21.522Z,100207.94
2024-04-18T20:42:24.575Z,100210.50
2024-04-18T20:47:39.186Z,100201.91
2024-04-18T20:52:42.131Z,100196.72
2024-04-18T20:57:45.101Z,100191.59
2024-04-18T21:02:50.689Z,100196.72
2024-04-18T21:07:53.745Z,100189.00
2024-04-18T21:12:56.812Z,100195.00
2024-04-18T21:18:02.429Z,100195.03
2024-04-18T21:23:05.591Z,100188.16
2024-04-18T21:28:08.996Z,100186.41
2024-04-18T21:33:14.689Z,100181.22
2024-04-18T21:38:17.865Z,100183.81
2024-04-18T21:43:21.320Z,100182.94
2024-04-18T21:48:27.502Z,100185.53
2024-04-18T21:53:31.185Z,100179.50
2024-04-18T21:58:34.194Z,100173.50
2024-04-18T22:03:39.860Z,100167.41
2024-04-18T22:08:42.948Z,100180.34
2024-04-18T22:13:46.940Z,100184.63
2024-04-18T22:18:52.653Z,100173.41
2024-04-18T22:24:10.993Z,100169.91
2024-04-18T22:29:14.055Z,100161.28
2024-04-18T22:34:27.774Z,100154.34
2024-04-18T22:39:34.488Z,100143.09
2024-04-18T22:44:37.570Z,100131.88
2024-04-18T22:49:43.153Z,100124.00
2024-04-18T22:54:46.236Z,100126.69
2024-04-18T22:59:51.971Z,100127.59
2024-04-18T23:04:57.828Z,100131.94
2024-04-18T23:10:00.907Z,100130.22
2024-04-18T23:15:03.909Z,100124.16
2024-04-18T23:20:11.554Z,100133.53
2024-04-18T23:25:14.662Z,100134.38
2024-04-18T23:30:17.788Z,100141.19
2024-04-18T23:35:23.596Z,100138.69
2024-04-18T23:40:26.632Z,100128.44
2024-04-18T23:45:29.715Z,100119.03
2024-04-18T23:50:35.350Z,100116.41
2024-04-18T23:55:38.358Z,100112.97
